aviador You're here:

KPDK Decoded Metar

PEACHTREE/DEKALB in GA, USA
Report Time2017-12-15 18:53:00
UTC Time2017-12-15 19:46:39
Flight Rules vfr VFR
Wind310° at 10 kt
W.Decomp.*RWY 34: 9.1 kt HW 4.2 kt LCW
RWY 27: 7.1 kt HW 7.1 kt RCW
RWY 03: 2.6 kt HW 9.7 kt LCW
W.Rank310° ranks 1
Current wind is above 310° avg. (8.2)
Visibility9999 m
Phenomena:N/A
Clouds:N/A
Expected CloudBase > 3,200 ft AGL from Temp-Dew spread
CeilingNone
Temp03°C (ISA -10)
Dew Point-5°C (56% RH)
AAT-3.2°C
QNH1018 hPa
Density Alt-331 ft
Elevation991 ft
Report Wrong Elevation
Raw Report
METAR KPDK 151853Z 31010KT 10SM CLR 03/M05 A3007 RMK AO2 SLP197 T00281050=

Extra information for KPDK:More info

Metar Taf Metar & Taf Last 4 Metars F.Rules Stats Wind Profile Meteogram Temp Stats Airport Information Weather charts Add Link Nearby VenuesMetar ALERT Operation Metar Decoded Social comments

AIRNAV info for KPDK